sensor_id;sensor_type;location;lat;lon;timestamp;pressure;altitude;pressure_sealevel;temperature;humidity
73629;BME280;61924;53.268;-2.458;2023-02-26T00:01:27;102237.33;;;14.97;29.05
73629;BME280;61924;53.268;-2.458;2023-02-26T00:03:50;102240.11;;;15.28;28.98
73629;BME280;61924;53.268;-2.458;2023-02-26T00:06:15;102239.03;;;14.67;29.15
73629;BME280;61924;53.268;-2.458;2023-02-26T00:08:41;102242.26;;;14.48;29.25
73629;BME280;61924;53.268;-2.458;2023-02-26T00:11:07;102242.68;;;15.36;28.92
73629;BME280;61924;53.268;-2.458;2023-02-26T00:13:32;102237.82;;;14.47;29.34
73629;BME280;61924;53.268;-2.458;2023-02-26T00:15:59;102242.48;;;14.58;29.34
73629;BME280;61924;53.268;-2.458;2023-02-26T00:18:21;102246.79;;;14.98;29.04
73629;BME280;61924;53.268;-2.458;2023-02-26T00:20:47;102250.31;;;15.10;29.15
73629;BME280;61924;53.268;-2.458;2023-02-26T00:23:12;102248.27;;;14.64;29.22
73629;BME280;61924;53.268;-2.458;2023-02-26T00:25:37;102243.43;;;14.74;29.26
73629;BME280;61924;53.268;-2.458;2023-02-26T00:28:03;102247.47;;;14.71;29.26
73629;BME280;61924;53.268;-2.458;2023-02-26T00:30:29;102250.97;;;14.54;29.26
73629;BME280;61924;53.268;-2.458;2023-02-26T00:32:54;102250.30;;;14.69;29.22
73629;BME280;61924;53.268;-2.458;2023-02-26T00:35:20;102252.19;;;14.61;29.25
73629;BME280;61924;53.268;-2.458;2023-02-26T00:38:02;102251.36;;;14.39;29.20
73629;BME280;61924;53.268;-2.458;2023-02-26T00:40:17;102254.17;;;14.53;29.26
73629;BME280;61924;53.268;-2.458;2023-02-26T00:42:35;102258.75;;;14.38;29.48
73629;BME280;61924;53.268;-2.458;2023-02-26T00:45:01;102260.84;;;14.36;29.38
73629;BME280;61924;53.268;-2.458;2023-02-26T00:47:32;102259.06;;;14.36;29.54
73629;BME280;61924;53.268;-2.458;2023-02-26T00:50:04;102260.67;;;14.23;29.46
73629;BME280;61924;53.268;-2.458;2023-02-26T00:52:23;102266.47;;;14.58;29.39
73629;BME280;61924;53.268;-2.458;2023-02-26T00:54:43;102263.50;;;14.44;29.38
73629;BME280;61924;53.268;-2.458;2023-02-26T00:57:08;102262.68;;;14.05;29.46
73629;BME280;61924;53.268;-2.458;2023-02-26T00:59:34;102263.31;;;14.48;29.39
73629;BME280;61924;53.268;-2.458;2023-02-26T01:01:59;102262.38;;;13.85;29.47
73629;BME280;61924;53.268;-2.458;2023-02-26T01:04:25;102264.87;;;14.20;29.28
73629;BME280;61924;53.268;-2.458;2023-02-26T01:06:53;102271.32;;;14.37;29.35
73629;BME280;61924;53.268;-2.458;2023-02-26T01:09:20;102269.00;;;14.12;29.29
73629;BME280;61924;53.268;-2.458;2023-02-26T01:11:41;102274.07;;;14.34;29.33
73629;BME280;61924;53.268;-2.458;2023-02-26T01:14:06;102272.75;;;14.29;29.39
73629;BME280;61924;53.268;-2.458;2023-02-26T01:16:40;102274.73;;;14.25;29.34
73629;BME280;61924;53.268;-2.458;2023-02-26T01:19:02;102272.42;;;14.33;29.41
73629;BME280;61924;53.268;-2.458;2023-02-26T01:21:28;102277.55;;;14.14;29.44
73629;BME280;61924;53.268;-2.458;2023-02-26T01:23:50;102273.96;;;14.23;29.36
73629;BME280;61924;53.268;-2.458;2023-02-26T01:26:18;102274.07;;;14.22;29.37
73629;BME280;61924;53.268;-2.458;2023-02-26T01:28:39;102274.39;;;13.90;29.47
73629;BME280;61924;53.268;-2.458;2023-02-26T01:31:06;102279.99;;;13.96;29.32
73629;BME280;61924;53.268;-2.458;2023-02-26T01:33:34;102284.76;;;14.28;29.28
73629;BME280;61924;53.268;-2.458;2023-02-26T01:36:00;102292.96;;;14.09;29.44
73629;BME280;61924;53.268;-2.458;2023-02-26T01:38:26;102294.26;;;13.81;29.40
73629;BME280;61924;53.268;-2.458;2023-02-26T01:41:32;102297.80;;;14.21;29.41
73629;BME280;61924;53.268;-2.458;2023-02-26T01:43:59;102295.96;;;13.94;29.44
73629;BME280;61924;53.268;-2.458;2023-02-26T01:46:21;102292.90;;;13.90;29.44
73629;BME280;61924;53.268;-2.458;2023-02-26T01:48:48;102292.65;;;13.92;29.40
73629;BME280;61924;53.268;-2.458;2023-02-26T01:51:07;102291.64;;;13.81;29.44
73629;BME280;61924;53.268;-2.458;2023-02-26T01:53:33;102289.34;;;13.75;29.42
73629;BME280;61924;53.268;-2.458;2023-02-26T01:55:59;102295.90;;;13.65;29.39
73629;BME280;61924;53.268;-2.458;2023-02-26T01:58:23;102298.99;;;13.94;29.38
73629;BME280;61924;53.268;-2.458;2023-02-26T02:00:47;102300.68;;;13.71;29.44
73629;BME280;61924;53.268;-2.458;2023-02-26T02:03:12;102303.16;;;14.00;29.30
73629;BME280;61924;53.268;-2.458;2023-02-26T02:05:41;102310.28;;;13.88;29.37
73629;BME280;61924;53.268;-2.458;2023-02-26T02:08:04;102312.15;;;13.84;29.36
73629;BME280;61924;53.268;-2.458;2023-02-26T02:10:29;102310.21;;;13.78;29.33
73629;BME280;61924;53.268;-2.458;2023-02-26T02:13:02;102312.93;;;13.68;29.38
73629;BME280;61924;53.268;-2.458;2023-02-26T02:15:24;102315.65;;;13.62;29.46
73629;BME280;61924;53.268;-2.458;2023-02-26T02:17:49;102319.40;;;13.30;29.51
73629;BME280;61924;53.268;-2.458;2023-02-26T02:20:28;102313.91;;;13.44;29.42
73629;BME280;61924;53.268;-2.458;2023-02-26T02:22:50;102314.77;;;13.38;29.49
73629;BME280;61924;53.268;-2.458;2023-02-26T02:25:19;102315.70;;;13.30;29.60
73629;BME280;61924;53.268;-2.458;2023-02-26T02:27:36;102318.54;;;13.45;29.67
73629;BME280;61924;53.268;-2.458;2023-02-26T02:30:06;102323.45;;;13.10;29.69
73629;BME280;61924;53.268;-2.458;2023-02-26T02:32:20;102325.54;;;13.03;29.77
73629;BME280;61924;53.268;-2.458;2023-02-26T02:34:47;102325.46;;;13.10;29.74
73629;BME280;61924;53.268;-2.458;2023-02-26T02:37:15;102322.40;;;13.09;29.64
73629;BME280;61924;53.268;-2.458;2023-02-26T02:39:37;102318.91;;;13.05;29.63
73629;BME280;61924;53.268;-2.458;2023-02-26T02:42:03;102320.93;;;13.02;29.66
73629;BME280;61924;53.268;-2.458;2023-02-26T02:44:26;102321.41;;;13.01;29.65
73629;BME280;61924;53.268;-2.458;2023-02-26T02:46:52;102317.71;;;13.14;29.61
73629;BME280;61924;53.268;-2.458;2023-02-26T02:49:19;102316.92;;;13.08;29.58
73629;BME280;61924;53.268;-2.458;2023-02-26T02:51:45;102322.09;;;12.91;29.74
73629;BME280;61924;53.268;-2.458;2023-02-26T02:54:10;102325.55;;;12.77;29.70
73629;BME280;61924;53.268;-2.458;2023-02-26T02:56:34;102327.21;;;13.00;29.62
73629;BME280;61924;53.268;-2.458;2023-02-26T02:59:00;102328.29;;;12.83;29.66
73629;BME280;61924;53.268;-2.458;2023-02-26T03:01:24;102326.51;;;12.88;29.61
73629;BME280;61924;53.268;-2.458;2023-02-26T03:03:54;102333.36;;;12.78;29.66
73629;BME280;61924;53.268;-2.458;2023-02-26T03:06:13;102335.43;;;12.80;29.63
73629;BME280;61924;53.268;-2.458;2023-02-26T03:08:40;102339.98;;;12.53;29.71
73629;BME280;61924;53.268;-2.458;2023-02-26T03:11:04;102340.51;;;12.70;29.71
73629;BME280;61924;53.268;-2.458;2023-02-26T03:13:30;102337.99;;;12.40;29.82
73629;BME280;61924;53.268;-2.458;2023-02-26T03:16:06;102334.22;;;12.54;29.71
73629;BME280;61924;53.268;-2.458;2023-02-26T03:18:28;102335.44;;;12.23;29.80
73629;BME280;61924;53.268;-2.458;2023-02-26T03:20:52;102333.99;;;12.23;29.88
73629;BME280;61924;53.268;-2.458;2023-02-26T03:23:18;102332.37;;;12.11;29.93
73629;BME280;61924;53.268;-2.458;2023-02-26T03:25:43;102341.47;;;12.11;29.98
73629;BME280;61924;53.268;-2.458;2023-02-26T03:28:08;102344.60;;;11.99;30.06
73629;BME280;61924;53.268;-2.458;2023-02-26T03:30:34;102351.27;;;11.77;30.09
73629;BME280;61924;53.268;-2.458;2023-02-26T03:32:59;102351.07;;;12.29;29.90
73629;BME280;61924;53.268;-2.458;2023-02-26T03:35:25;102350.58;;;11.99;30.08
73629;BME280;61924;53.268;-2.458;2023-02-26T03:37:47;102346.80;;;11.74;30.08
73629;BME280;61924;53.268;-2.458;2023-02-26T03:40:14;102349.19;;;12.06;30.05
73629;BME280;61924;53.268;-2.458;2023-02-26T03:42:40;102346.44;;;11.46;30.23
73629;BME280;61924;53.268;-2.458;2023-02-26T03:45:04;102347.84;;;11.33;30.31
73629;BME280;61924;53.268;-2.458;2023-02-26T03:47:28;102345.53;;;11.44;30.27
73629;BME280;61924;53.268;-2.458;2023-02-26T03:49:55;102344.48;;;11.94;30.30
73629;BME280;61924;53.268;-2.458;2023-02-26T03:52:20;102347.99;;;11.40;30.31
73629;BME280;61924;53.268;-2.458;2023-02-26T03:54:47;102353.18;;;11.09;30.46
73629;BME280;61924;53.268;-2.458;2023-02-26T03:57:08;102355.35;;;11.24;30.33
73629;BME280;61924;53.268;-2.458;2023-02-26T03:59:34;102364.43;;;10.95;30.45
73629;BME280;61924;53.268;-2.458;2023-02-26T04:02:02;102369.43;;;10.96;30.42
73629;BME280;61924;53.268;-2.458;2023-02-26T04:04:28;102371.39;;;11.08;30.39
73629;BME280;61924;53.268;-2.458;2023-02-26T04:06:50;102373.97;;;11.08;30.37
73629;BME280;61924;53.268;-2.458;2023-02-26T04:09:16;102377.15;;;10.95;30.42
73629;BME280;61924;53.268;-2.458;2023-02-26T04:11:42;102376.73;;;11.19;30.48
73629;BME280;61924;53.268;-2.458;2023-02-26T04:14:07;102377.42;;;11.20;30.35
73629;BME280;61924;53.268;-2.458;2023-02-26T04:16:33;102384.50;;;10.80;30.49
73629;BME280;61924;53.268;-2.458;2023-02-26T04:18:58;102388.50;;;10.96;30.36
73629;BME280;61924;53.268;-2.458;2023-02-26T04:21:24;102391.73;;;11.01;30.43
73629;BME280;61924;53.268;-2.458;2023-02-26T04:23:49;102395.88;;;11.07;30.40
73629;BME280;61924;53.268;-2.458;2023-02-26T04:26:15;102396.22;;;11.02;30.40
73629;BME280;61924;53.268;-2.458;2023-02-26T04:28:40;102400.77;;;11.18;30.29
73629;BME280;61924;53.268;-2.458;2023-02-26T04:31:06;102401.83;;;10.73;30.40
73629;BME280;61924;53.268;-2.458;2023-02-26T04:33:31;102403.19;;;10.95;30.52
73629;BME280;61924;53.268;-2.458;2023-02-26T04:35:56;102404.66;;;10.61;30.67
73629;BME280;61924;53.268;-2.458;2023-02-26T04:38:22;102402.20;;;10.62;30.52
73629;BME280;61924;53.268;-2.458;2023-02-26T04:40:48;102403.23;;;10.55;30.46
73629;BME280;61924;53.268;-2.458;2023-02-26T04:43:12;102409.08;;;10.55;30.45
73629;BME280;61924;53.268;-2.458;2023-02-26T04:45:38;102416.14;;;10.67;30.42
73629;BME280;61924;53.268;-2.458;2023-02-26T04:48:03;102417.95;;;10.38;30.44
73629;BME280;61924;53.268;-2.458;2023-02-26T04:50:29;102424.12;;;10.69;30.37
73629;BME280;61924;53.268;-2.458;2023-02-26T04:52:54;102421.53;;;10.67;30.37
73629;BME280;61924;53.268;-2.458;2023-02-26T04:55:19;102418.37;;;10.53;30.56
73629;BME280;61924;53.268;-2.458;2023-02-26T04:57:44;102420.89;;;10.85;30.38
73629;BME280;61924;53.268;-2.458;2023-02-26T05:00:11;102418.68;;;10.33;30.44
73629;BME280;61924;53.268;-2.458;2023-02-26T05:02:35;102420.94;;;10.28;30.55
73629;BME280;61924;53.268;-2.458;2023-02-26T05:05:01;102428.99;;;10.70;30.41
73629;BME280;61924;53.268;-2.458;2023-02-26T05:07:27;102425.86;;;10.27;30.47
73629;BME280;61924;53.268;-2.458;2023-02-26T05:09:52;102426.26;;;10.32;30.48
73629;BME280;61924;53.268;-2.458;2023-02-26T05:12:17;102433.94;;;10.05;30.61
73629;BME280;61924;53.268;-2.458;2023-02-26T05:14:43;102439.97;;;10.28;30.42
73629;BME280;61924;53.268;-2.458;2023-02-26T05:17:10;102438.24;;;10.29;30.37
73629;BME280;61924;53.268;-2.458;2023-02-26T05:19:34;102430.43;;;10.25;30.56
73629;BME280;61924;53.268;-2.458;2023-02-26T05:21:59;102426.68;;;10.00;30.43
73629;BME280;61924;53.268;-2.458;2023-02-26T05:24:24;102424.97;;;9.85;30.49
73629;BME280;61924;53.268;-2.458;2023-02-26T05:26:50;102434.45;;;10.16;30.50
73629;BME280;61924;53.268;-2.458;2023-02-26T05:29:16;102440.14;;;9.82;30.57
73629;BME280;61924;53.268;-2.458;2023-02-26T05:31:42;102439.08;;;10.61;30.47
73629;BME280;61924;53.268;-2.458;2023-02-26T05:34:07;102444.28;;;10.20;30.55
73629;BME280;61924;53.268;-2.458;2023-02-26T05:36:32;102450.53;;;10.34;30.49
73629;BME280;61924;53.268;-2.458;2023-02-26T05:38:57;102450.40;;;10.74;30.03
73629;BME280;61924;53.268;-2.458;2023-02-26T05:41:23;102454.76;;;11.05;29.98
73629;BME280;61924;53.268;-2.458;2023-02-26T05:43:48;102453.34;;;10.18;30.58
73629;BME280;61924;53.268;-2.458;2023-02-26T05:46:14;102457.53;;;10.20;30.29
73629;BME280;61924;53.268;-2.458;2023-02-26T05:48:39;102460.17;;;10.78;30.17
73629;BME280;61924;53.268;-2.458;2023-02-26T05:51:04;102461.61;;;11.16;29.73
73629;BME280;61924;53.268;-2.458;2023-02-26T05:53:29;102463.43;;;10.82;30.04
73629;BME280;61924;53.268;-2.458;2023-02-26T05:55:54;102464.50;;;10.63;30.11
73629;BME280;61924;53.268;-2.458;2023-02-26T05:58:20;102461.93;;;10.22;30.21
73629;BME280;61924;53.268;-2.458;2023-02-26T06:00:45;102461.70;;;10.84;29.76
73629;BME280;61924;53.268;-2.458;2023-02-26T06:03:10;102465.05;;;11.71;29.44
73629;BME280;61924;53.268;-2.458;2023-02-26T06:05:35;102467.11;;;11.29;29.62
73629;BME280;61924;53.268;-2.458;2023-02-26T06:08:01;102468.34;;;10.86;29.96
73629;BME280;61924;53.268;-2.458;2023-02-26T06:10:26;102469.89;;;11.29;29.73
73629;BME280;61924;53.268;-2.458;2023-02-26T06:12:51;102473.12;;;11.37;29.67
73629;BME280;61924;53.268;-2.458;2023-02-26T06:15:17;102474.09;;;10.40;30.20
73629;BME280;61924;53.268;-2.458;2023-02-26T06:17:42;102482.04;;;11.77;29.32
73629;BME280;61924;53.268;-2.458;2023-02-26T06:20:08;102484.46;;;12.45;28.83
73629;BME280;61924;53.268;-2.458;2023-02-26T06:22:33;102492.51;;;12.92;28.75
73629;BME280;61924;53.268;-2.458;2023-02-26T06:24:58;102493.99;;;13.31;28.65
73629;BME280;61924;53.268;-2.458;2023-02-26T06:27:23;102500.99;;;13.10;28.97
73629;BME280;61924;53.268;-2.458;2023-02-26T06:29:48;102499.75;;;12.76;29.10
73629;BME280;61924;53.268;-2.458;2023-02-26T06:32:13;102499.19;;;13.39;28.93
73629;BME280;61924;53.268;-2.458;2023-02-26T06:34:39;102496.66;;;13.01;29.05
73629;BME280;61924;53.268;-2.458;2023-02-26T06:37:04;102498.16;;;13.33;29.02
73629;BME280;61924;53.268;-2.458;2023-02-26T06:39:29;102503.99;;;13.17;29.16
73629;BME280;61924;53.268;-2.458;2023-02-26T06:41:55;102509.24;;;13.12;28.95
73629;BME280;61924;53.268;-2.458;2023-02-26T06:44:20;102507.89;;;12.89;29.03
73629;BME280;61924;53.268;-2.458;2023-02-26T06:46:45;102511.30;;;13.09;28.91
73629;BME280;61924;53.268;-2.458;2023-02-26T06:49:11;102518.00;;;13.46;28.81
73629;BME280;61924;53.268;-2.458;2023-02-26T06:51:36;102520.59;;;13.60;28.87
73629;BME280;61924;53.268;-2.458;2023-02-26T06:54:02;102521.27;;;13.29;28.88
73629;BME280;61924;53.268;-2.458;2023-02-26T06:56:27;102516.50;;;13.52;28.82
73629;BME280;61924;53.268;-2.458;2023-02-26T06:58:52;102524.10;;;13.26;28.97
73629;BME280;61924;53.268;-2.458;2023-02-26T07:01:18;102525.56;;;13.38;28.87
73629;BME280;61924;53.268;-2.458;2023-02-26T07:03:43;102527.30;;;13.42;28.85
73629;BME280;61924;53.268;-2.458;2023-02-26T07:06:09;102532.17;;;13.54;28.80
73629;BME280;61924;53.268;-2.458;2023-02-26T07:08:34;102533.82;;;13.44;28.91
73629;BME280;61924;53.268;-2.458;2023-02-26T07:11:00;102524.43;;;13.41;28.75
73629;BME280;61924;53.268;-2.458;2023-02-26T07:13:25;102520.09;;;13.59;28.78
73629;BME280;61924;53.268;-2.458;2023-02-26T07:15:50;102519.42;;;13.46;28.62
73629;BME280;61924;53.268;-2.458;2023-02-26T07:18:15;102516.79;;;13.21;28.75
73629;BME280;61924;53.268;-2.458;2023-02-26T07:20:41;102522.96;;;13.53;28.83
73629;BME280;61924;53.268;-2.458;2023-02-26T07:23:06;102524.58;;;13.33;28.70
73629;BME280;61924;53.268;-2.458;2023-02-26T07:25:31;102525.67;;;14.04;28.78
73629;BME280;61924;53.268;-2.458;2023-02-26T07:27:56;102525.79;;;13.84;28.71
73629;BME280;61924;53.268;-2.458;2023-02-26T07:30:22;102525.85;;;13.51;28.80
73629;BME280;61924;53.268;-2.458;2023-02-26T07:32:48;102529.37;;;14.03;28.73
73629;BME280;61924;53.268;-2.458;2023-02-26T07:35:13;102528.67;;;13.86;28.74
73629;BME280;61924;53.268;-2.458;2023-02-26T07:37:38;102531.75;;;13.60;28.86
73629;BME280;61924;53.268;-2.458;2023-02-26T07:40:05;102533.51;;;13.77;28.88
73629;BME280;61924;53.268;-2.458;2023-02-26T07:42:29;102537.28;;;14.16;28.71
73629;BME280;61924;53.268;-2.458;2023-02-26T07:44:54;102544.67;;;14.10;28.79
73629;BME280;61924;53.268;-2.458;2023-02-26T07:47:20;102550.88;;;13.77;28.83
73629;BME280;61924;53.268;-2.458;2023-02-26T07:49:45;102559.61;;;13.85;28.83
73629;BME280;61924;53.268;-2.458;2023-02-26T07:52:11;102566.31;;;14.14;28.73
73629;BME280;61924;53.268;-2.458;2023-02-26T07:54:37;102562.79;;;13.94;28.78
73629;BME280;61924;53.268;-2.458;2023-02-26T07:57:03;102568.62;;;14.06;28.86
73629;BME280;61924;53.268;-2.458;2023-02-26T07:59:28;102569.33;;;14.01;28.82
73629;BME280;61924;53.268;-2.458;2023-02-26T08:01:53;102577.18;;;14.15;28.75
73629;BME280;61924;53.268;-2.458;2023-02-26T08:04:18;102581.22;;;14.28;28.83
73629;BME280;61924;53.268;-2.458;2023-02-26T08:06:44;102578.23;;;14.42;28.66
73629;BME280;61924;53.268;-2.458;2023-02-26T08:09:09;102586.97;;;14.34;28.72
73629;BME280;61924;53.268;-2.458;2023-02-26T08:11:34;102583.70;;;14.16;28.86
73629;BME280;61924;53.268;-2.458;2023-02-26T08:14:00;102581.63;;;14.59;28.77
73629;BME280;61924;53.268;-2.458;2023-02-26T08:16:26;102586.97;;;14.64;28.65
73629;BME280;61924;53.268;-2.458;2023-02-26T08:18:51;102587.74;;;14.59;28.71
73629;BME280;61924;53.268;-2.458;2023-02-26T08:21:17;102585.59;;;14.57;28.71
73629;BME280;61924;53.268;-2.458;2023-02-26T08:23:42;102589.81;;;14.53;28.59
73629;BME280;61924;53.268;-2.458;2023-02-26T08:26:09;102588.52;;;14.60;28.72
73629;BME280;61924;53.268;-2.458;2023-02-26T08:28:33;102585.12;;;15.03;28.60
73629;BME280;61924;53.268;-2.458;2023-02-26T08:30:59;102599.23;;;14.89;28.68
73629;BME280;61924;53.268;-2.458;2023-02-26T08:33:23;102602.80;;;14.64;28.75
73629;BME280;61924;53.268;-2.458;2023-02-26T08:35:49;102603.15;;;14.78;28.73
73629;BME280;61924;53.268;-2.458;2023-02-26T08:38:14;102601.89;;;14.94;28.68
73629;BME280;61924;53.268;-2.458;2023-02-26T08:40:40;102610.47;;;14.78;28.71
73629;BME280;61924;53.268;-2.458;2023-02-26T08:43:05;102614.22;;;14.79;28.71
73629;BME280;61924;53.268;-2.458;2023-02-26T08:45:30;102614.39;;;14.67;28.68
73629;BME280;61924;53.268;-2.458;2023-02-26T08:47:56;102617.94;;;15.08;28.72
73629;BME280;61924;53.268;-2.458;2023-02-26T08:50:21;102619.19;;;14.75;28.89
73629;BME280;61924;53.268;-2.458;2023-02-26T08:52:46;102624.72;;;14.99;28.60
73629;BME280;61924;53.268;-2.458;2023-02-26T08:55:12;102626.49;;;15.07;28.63
73629;BME280;61924;53.268;-2.458;2023-02-26T08:57:37;102629.58;;;14.72;28.77
73629;BME280;61924;53.268;-2.458;2023-02-26T09:00:03;102636.69;;;14.71;28.70
73629;BME280;61924;53.268;-2.458;2023-02-26T09:02:27;102639.22;;;15.25;28.67
73629;BME280;61924;53.268;-2.458;2023-02-26T09:04:53;102636.94;;;15.29;28.56
73629;BME280;61924;53.268;-2.458;2023-02-26T09:07:18;102641.23;;;14.99;28.78
73629;BME280;61924;53.268;-2.458;2023-02-26T09:09:44;102642.56;;;15.49;28.70
73629;BME280;61924;53.268;-2.458;2023-02-26T09:12:09;102644.00;;;15.33;28.63
73629;BME280;61924;53.268;-2.458;2023-02-26T09:14:35;102655.65;;;15.31;28.74
73629;BME280;61924;53.268;-2.458;2023-02-26T09:17:00;102647.94;;;15.29;28.62
73629;BME280;61924;53.268;-2.458;2023-02-26T09:19:25;102651.12;;;15.56;28.64
73629;BME280;61924;53.268;-2.458;2023-02-26T09:21:50;102653.84;;;15.18;28.77
73629;BME280;61924;53.268;-2.458;2023-02-26T09:24:16;102658.28;;;15.32;28.67
73629;BME280;61924;53.268;-2.458;2023-02-26T09:26:41;102656.41;;;15.48;28.66
73629;BME280;61924;53.268;-2.458;2023-02-26T09:29:07;102660.70;;;15.25;28.64
73629;BME280;61924;53.268;-2.458;2023-02-26T09:31:32;102660.76;;;15.48;28.65
73629;BME280;61924;53.268;-2.458;2023-02-26T09:33:58;102662.09;;;15.27;28.78
73629;BME280;61924;53.268;-2.458;2023-02-26T09:36:23;102660.06;;;15.00;28.75
73629;BME280;61924;53.268;-2.458;2023-02-26T09:38:48;102659.20;;;15.17;28.70
73629;BME280;61924;53.268;-2.458;2023-02-26T09:41:18;102658.43;;;15.44;28.67
73629;BME280;61924;53.268;-2.458;2023-02-26T09:43:53;102662.67;;;15.26;28.65
73629;BME280;61924;53.268;-2.458;2023-02-26T09:46:16;102669.07;;;14.98;28.83
73629;BME280;61924;53.268;-2.458;2023-02-26T09:48:30;102669.02;;;15.14;28.78
73629;BME280;61924;53.268;-2.458;2023-02-26T09:50:56;102671.97;;;15.24;28.77
73629;BME280;61924;53.268;-2.458;2023-02-26T09:53:25;102675.39;;;15.13;28.67
73629;BME280;61924;53.268;-2.458;2023-02-26T09:55:49;102673.24;;;15.01;28.68
73629;BME280;61924;53.268;-2.458;2023-02-26T09:58:17;102670.25;;;15.41;28.59
73629;BME280;61924;53.268;-2.458;2023-02-26T10:00:43;102679.54;;;15.02;28.66
73629;BME280;61924;53.268;-2.458;2023-02-26T10:03:16;102681.39;;;15.28;28.66
73629;BME280;61924;53.268;-2.458;2023-02-26T10:05:33;102686.72;;;15.35;28.68
73629;BME280;61924;53.268;-2.458;2023-02-26T10:07:56;102687.60;;;15.22;28.69
73629;BME280;61924;53.268;-2.458;2023-02-26T10:10:23;102696.91;;;15.42;28.66
73629;BME280;61924;53.268;-2.458;2023-02-26T10:12:44;102694.85;;;15.07;28.63
73629;BME280;61924;53.268;-2.458;2023-02-26T10:15:11;102694.47;;;15.02;28.51
73629;BME280;61924;53.268;-2.458;2023-02-26T10:17:39;102696.52;;;15.15;28.58
73629;BME280;61924;53.268;-2.458;2023-02-26T10:20:03;102696.27;;;15.46;28.50
73629;BME280;61924;53.268;-2.458;2023-02-26T10:22:29;102698.34;;;15.40;28.36
73629;BME280;61924;53.268;-2.458;2023-02-26T10:24:53;102698.37;;;15.34;28.48
73629;BME280;61924;53.268;-2.458;2023-02-26T10:27:19;102703.90;;;15.55;28.35
73629;BME280;61924;53.268;-2.458;2023-02-26T10:29:44;102703.68;;;14.95;28.37
73629;BME280;61924;53.268;-2.458;2023-02-26T10:32:17;102712.14;;;15.09;28.38
73629;BME280;61924;53.268;-2.458;2023-02-26T10:34:34;102707.58;;;14.97;28.44
73629;BME280;61924;53.268;-2.458;2023-02-26T10:37:02;102710.90;;;15.18;28.38
73629;BME280;61924;53.268;-2.458;2023-02-26T10:39:28;102711.59;;;15.21;28.31
73629;BME280;61924;53.268;-2.458;2023-02-26T10:41:47;102720.15;;;15.21;28.24
73629;BME280;61924;53.268;-2.458;2023-02-26T10:44:17;102717.13;;;15.27;28.20
73629;BME280;61924;53.268;-2.458;2023-02-26T10:46:45;102721.76;;;15.29;28.23
73629;BME280;61924;53.268;-2.458;2023-02-26T10:49:25;102724.53;;;15.26;28.20
73629;BME280;61924;53.268;-2.458;2023-02-26T10:51:33;102729.96;;;15.22;28.16
73629;BME280;61924;53.268;-2.458;2023-02-26T10:53:58;102732.65;;;15.20;28.15
73629;BME280;61924;53.268;-2.458;2023-02-26T10:56:22;102728.59;;;15.21;28.10
73629;BME280;61924;53.268;-2.458;2023-02-26T10:58:45;102733.06;;;15.45;28.11
73629;BME280;61924;53.268;-2.458;2023-02-26T11:01:15;102732.12;;;15.22;28.01
73629;BME280;61924;53.268;-2.458;2023-02-26T11:03:40;102729.52;;;15.41;27.97
73629;BME280;61924;53.268;-2.458;2023-02-26T11:06:03;102733.53;;;15.33;27.97
73629;BME280;61924;53.268;-2.458;2023-02-26T11:08:31;102726.66;;;15.45;27.98
73629;BME280;61924;53.268;-2.458;2023-02-26T11:10:55;102726.14;;;15.26;28.19
73629;BME280;61924;53.268;-2.458;2023-02-26T11:13:20;102736.39;;;15.27;28.05
73629;BME280;61924;53.268;-2.458;2023-02-26T11:15:48;102737.31;;;15.11;28.05
73629;BME280;61924;53.268;-2.458;2023-02-26T11:18:13;102738.49;;;14.87;28.09
73629;BME280;61924;53.268;-2.458;2023-02-26T11:20:38;102741.89;;;15.13;28.00
73629;BME280;61924;53.268;-2.458;2023-02-26T11:23:02;102745.61;;;15.13;27.98
73629;BME280;61924;53.268;-2.458;2023-02-26T11:25:27;102743.19;;;13.26;28.64
73629;BME280;61924;53.268;-2.458;2023-02-26T11:27:54;102743.42;;;13.31;26.55
73629;BME280;61924;53.268;-2.458;2023-02-26T11:30:17;102738.74;;;13.34;24.48
73629;BME280;61924;53.268;-2.458;2023-02-26T11:32:40;102743.08;;;12.53;25.91
73629;BME280;61924;53.268;-2.458;2023-02-26T11:35:08;102742.76;;;12.58;26.31
73629;BME280;61924;53.268;-2.458;2023-02-26T11:37:34;102741.76;;;12.12;27.37
73629;BME280;61924;53.268;-2.458;2023-02-26T11:40:02;102747.06;;;12.54;26.61
73629;BME280;61924;53.268;-2.458;2023-02-26T11:42:23;102740.20;;;12.38;26.82
73629;BME280;61924;53.268;-2.458;2023-02-26T11:44:50;102753.25;;;12.45;26.00
73629;BME280;61924;53.268;-2.458;2023-02-26T11:47:16;102753.16;;;12.24;26.80
73629;BME280;61924;53.268;-2.458;2023-02-26T11:49:42;102755.84;;;12.75;26.04
73629;BME280;61924;53.268;-2.458;2023-02-26T11:52:16;102754.93;;;12.43;26.85
73629;BME280;61924;53.268;-2.458;2023-02-26T11:54:34;102760.40;;;12.11;26.87
73629;BME280;61924;53.268;-2.458;2023-02-26T11:57:01;102763.39;;;12.34;27.19
73629;BME280;61924;53.268;-2.458;2023-02-26T11:59:23;102763.72;;;12.83;26.92
73629;BME280;61924;53.268;-2.458;2023-02-26T12:01:48;102762.76;;;12.33;26.82
73629;BME280;61924;53.268;-2.458;2023-02-26T12:04:15;102764.25;;;12.00;27.10
73629;BME280;61924;53.268;-2.458;2023-02-26T12:06:38;102765.45;;;11.87;26.34
73629;BME280;61924;53.268;-2.458;2023-02-26T12:09:04;102761.61;;;11.96;26.89
73629;BME280;61924;53.268;-2.458;2023-02-26T12:11:41;102763.85;;;12.29;26.59
73629;BME280;61924;53.268;-2.458;2023-02-26T12:14:03;102767.46;;;12.98;26.34
73629;BME280;61924;53.268;-2.458;2023-02-26T12:16:24;102775.41;;;13.19;26.18
73629;BME280;61924;53.268;-2.458;2023-02-26T12:18:54;102772.54;;;13.57;25.76
73629;BME280;61924;53.268;-2.458;2023-02-26T12:21:22;102770.12;;;13.75;25.64
73629;BME280;61924;53.268;-2.458;2023-02-26T12:23:52;102766.66;;;13.66;25.87
73629;BME280;61924;53.268;-2.458;2023-02-26T12:26:15;102774.20;;;13.82;25.95
73629;BME280;61924;53.268;-2.458;2023-02-26T12:28:38;102774.89;;;13.80;26.10
73629;BME280;61924;53.268;-2.458;2023-02-26T12:31:05;102776.01;;;13.71;26.38